sensor_id;sensor_type;location;lat;lon;timestamp;P1;durP1;ratioP1;P2;durP2;ratioP2
50319;SDS011;36226;53.464;9.852;2024-01-11T00:00:05;38.53;;;16.10;;
50319;SDS011;36226;53.464;9.852;2024-01-11T00:02:31;41.85;;;17.25;;
50319;SDS011;36226;53.464;9.852;2024-01-11T00:04:57;37.30;;;15.23;;
50319;SDS011;36226;53.464;9.852;2024-01-11T00:07:22;35.83;;;14.63;;
50319;SDS011;36226;53.464;9.852;2024-01-11T00:09:48;37.28;;;16.00;;
50319;SDS011;36226;53.464;9.852;2024-01-11T00:12:13;35.25;;;14.45;;
50319;SDS011;36226;53.464;9.852;2024-01-11T00:14:39;35.42;;;14.60;;
50319;SDS011;36226;53.464;9.852;2024-01-11T00:17:05;39.95;;;15.35;;
50319;SDS011;36226;53.464;9.852;2024-01-11T00:19:30;39.63;;;15.98;;
50319;SDS011;36226;53.464;9.852;2024-01-11T00:21:56;36.25;;;14.77;;
50319;SDS011;36226;53.464;9.852;2024-01-11T00:24:22;35.38;;;15.40;;
50319;SDS011;36226;53.464;9.852;2024-01-11T00:26:47;39.92;;;15.07;;
50319;SDS011;36226;53.464;9.852;2024-01-11T00:29:12;32.70;;;14.55;;
50319;SDS011;36226;53.464;9.852;2024-01-11T00:31:38;40.72;;;14.32;;
50319;SDS011;36226;53.464;9.852;2024-01-11T00:34:03;35.30;;;13.95;;
50319;SDS011;36226;53.464;9.852;2024-01-11T00:36:29;36.20;;;13.93;;
50319;SDS011;36226;53.464;9.852;2024-01-11T00:38:54;37.15;;;14.35;;
50319;SDS011;36226;53.464;9.852;2024-01-11T00:41:20;36.20;;;14.45;;
50319;SDS011;36226;53.464;9.852;2024-01-11T00:43:45;32.22;;;13.25;;
50319;SDS011;36226;53.464;9.852;2024-01-11T00:46:11;35.60;;;14.07;;
50319;SDS011;36226;53.464;9.852;2024-01-11T00:48:36;33.47;;;13.95;;
50319;SDS011;36226;53.464;9.852;2024-01-11T00:51:03;33.33;;;13.70;;
50319;SDS011;36226;53.464;9.852;2024-01-11T00:53:29;34.58;;;12.23;;
50319;SDS011;36226;53.464;9.852;2024-01-11T00:55:57;34.05;;;12.30;;
50319;SDS011;36226;53.464;9.852;2024-01-11T00:58:22;33.17;;;12.95;;
50319;SDS011;36226;53.464;9.852;2024-01-11T01:00:47;32.85;;;12.77;;
50319;SDS011;36226;53.464;9.852;2024-01-11T01:03:14;35.65;;;13.05;;
50319;SDS011;36226;53.464;9.852;2024-01-11T01:05:41;36.30;;;14.27;;
50319;SDS011;36226;53.464;9.852;2024-01-11T01:08:27;31.70;;;12.27;;
50319;SDS011;36226;53.464;9.852;2024-01-11T01:10:52;36.92;;;13.00;;
50319;SDS011;36226;53.464;9.852;2024-01-11T01:13:17;37.17;;;14.18;;
50319;SDS011;36226;53.464;9.852;2024-01-11T01:15:43;40.65;;;15.40;;
50319;SDS011;36226;53.464;9.852;2024-01-11T01:18:08;39.13;;;14.15;;
50319;SDS011;36226;53.464;9.852;2024-01-11T01:20:33;37.00;;;13.25;;
50319;SDS011;36226;53.464;9.852;2024-01-11T01:22:59;36.88;;;13.88;;
50319;SDS011;36226;53.464;9.852;2024-01-11T01:25:24;39.45;;;13.77;;
50319;SDS011;36226;53.464;9.852;2024-01-11T01:27:50;36.58;;;13.73;;
50319;SDS011;36226;53.464;9.852;2024-01-11T01:30:15;34.15;;;12.98;;
50319;SDS011;36226;53.464;9.852;2024-01-11T01:32:41;32.33;;;13.02;;
50319;SDS011;36226;53.464;9.852;2024-01-11T01:35:06;33.15;;;12.45;;
50319;SDS011;36226;53.464;9.852;2024-01-11T01:37:32;38.15;;;13.55;;
50319;SDS011;36226;53.464;9.852;2024-01-11T01:39:58;42.75;;;13.40;;
50319;SDS011;36226;53.464;9.852;2024-01-11T01:42:23;36.88;;;13.57;;
50319;SDS011;36226;53.464;9.852;2024-01-11T01:44:48;36.08;;;12.45;;
50319;SDS011;36226;53.464;9.852;2024-01-11T01:47:14;30.13;;;11.50;;
50319;SDS011;36226;53.464;9.852;2024-01-11T01:49:39;35.40;;;12.95;;
50319;SDS011;36226;53.464;9.852;2024-01-11T01:52:05;36.15;;;12.95;;
50319;SDS011;36226;53.464;9.852;2024-01-11T01:54:31;36.95;;;13.05;;
50319;SDS011;36226;53.464;9.852;2024-01-11T01:56:57;37.30;;;12.55;;
50319;SDS011;36226;53.464;9.852;2024-01-11T01:59:22;29.92;;;12.00;;
50319;SDS011;36226;53.464;9.852;2024-01-11T02:01:49;33.42;;;13.07;;
50319;SDS011;36226;53.464;9.852;2024-01-11T02:04:14;37.10;;;13.07;;
50319;SDS011;36226;53.464;9.852;2024-01-11T02:06:40;36.83;;;12.35;;
50319;SDS011;36226;53.464;9.852;2024-01-11T02:09:06;32.40;;;11.35;;
50319;SDS011;36226;53.464;9.852;2024-01-11T02:11:33;32.50;;;13.00;;
50319;SDS011;36226;53.464;9.852;2024-01-11T02:13:58;31.60;;;12.48;;
50319;SDS011;36226;53.464;9.852;2024-01-11T02:16:24;32.33;;;11.77;;
50319;SDS011;36226;53.464;9.852;2024-01-11T02:18:49;32.97;;;12.73;;
50319;SDS011;36226;53.464;9.852;2024-01-11T02:21:15;35.95;;;12.60;;
50319;SDS011;36226;53.464;9.852;2024-01-11T02:24:24;30.88;;;11.18;;
50319;SDS011;36226;53.464;9.852;2024-01-11T02:26:31;30.65;;;12.32;;
50319;SDS011;36226;53.464;9.852;2024-01-11T02:28:56;29.95;;;11.40;;
50319;SDS011;36226;53.464;9.852;2024-01-11T02:31:21;35.25;;;11.98;;
50319;SDS011;36226;53.464;9.852;2024-01-11T02:33:47;29.20;;;10.90;;
50319;SDS011;36226;53.464;9.852;2024-01-11T02:36:13;33.67;;;12.05;;
50319;SDS011;36226;53.464;9.852;2024-01-11T02:38:38;29.05;;;11.90;;
50319;SDS011;36226;53.464;9.852;2024-01-11T02:41:05;27.65;;;11.57;;
50319;SDS011;36226;53.464;9.852;2024-01-11T02:43:30;33.05;;;12.43;;
50319;SDS011;36226;53.464;9.852;2024-01-11T02:45:55;32.22;;;11.63;;
50319;SDS011;36226;53.464;9.852;2024-01-11T02:48:23;31.70;;;11.48;;
50319;SDS011;36226;53.464;9.852;2024-01-11T02:50:52;36.03;;;12.30;;
50319;SDS011;36226;53.464;9.852;2024-01-11T02:53:18;35.72;;;12.48;;
50319;SDS011;36226;53.464;9.852;2024-01-11T02:55:43;32.28;;;11.82;;
50319;SDS011;36226;53.464;9.852;2024-01-11T02:58:08;32.95;;;12.25;;
50319;SDS011;36226;53.464;9.852;2024-01-11T03:00:33;33.63;;;12.02;;
50319;SDS011;36226;53.464;9.852;2024-01-11T03:02:59;37.45;;;13.82;;
50319;SDS011;36226;53.464;9.852;2024-01-11T03:05:24;32.75;;;12.63;;
50319;SDS011;36226;53.464;9.852;2024-01-11T03:07:49;35.05;;;12.75;;
50319;SDS011;36226;53.464;9.852;2024-01-11T03:10:15;35.08;;;13.35;;
50319;SDS011;36226;53.464;9.852;2024-01-11T03:12:41;42.15;;;13.20;;
50319;SDS011;36226;53.464;9.852;2024-01-11T03:15:07;38.50;;;13.57;;
50319;SDS011;36226;53.464;9.852;2024-01-11T03:17:33;34.28;;;13.45;;
50319;SDS011;36226;53.464;9.852;2024-01-11T03:19:58;38.08;;;14.30;;
50319;SDS011;36226;53.464;9.852;2024-01-11T03:22:24;38.95;;;13.50;;
50319;SDS011;36226;53.464;9.852;2024-01-11T03:24:50;38.08;;;13.48;;
50319;SDS011;36226;53.464;9.852;2024-01-11T03:27:15;35.00;;;13.15;;
50319;SDS011;36226;53.464;9.852;2024-01-11T03:29:40;34.90;;;12.18;;
50319;SDS011;36226;53.464;9.852;2024-01-11T03:32:06;38.22;;;13.18;;
50319;SDS011;36226;53.464;9.852;2024-01-11T03:34:31;39.88;;;14.55;;
50319;SDS011;36226;53.464;9.852;2024-01-11T03:36:57;33.35;;;13.18;;
50319;SDS011;36226;53.464;9.852;2024-01-11T03:39:22;43.47;;;14.50;;
50319;SDS011;36226;53.464;9.852;2024-01-11T03:41:48;37.70;;;13.50;;
50319;SDS011;36226;53.464;9.852;2024-01-11T03:44:13;35.22;;;12.52;;
50319;SDS011;36226;53.464;9.852;2024-01-11T03:46:39;36.08;;;12.85;;
50319;SDS011;36226;53.464;9.852;2024-01-11T03:49:04;38.75;;;13.48;;
50319;SDS011;36226;53.464;9.852;2024-01-11T03:51:30;40.05;;;14.40;;
50319;SDS011;36226;53.464;9.852;2024-01-11T03:53:55;36.35;;;12.65;;
50319;SDS011;36226;53.464;9.852;2024-01-11T03:56:20;38.03;;;12.73;;
50319;SDS011;36226;53.464;9.852;2024-01-11T03:58:46;39.10;;;13.75;;
50319;SDS011;36226;53.464;9.852;2024-01-11T04:01:11;39.55;;;13.68;;
50319;SDS011;36226;53.464;9.852;2024-01-11T04:03:37;40.33;;;14.13;;
50319;SDS011;36226;53.464;9.852;2024-01-11T04:06:03;38.88;;;13.25;;
50319;SDS011;36226;53.464;9.852;2024-01-11T04:08:28;39.83;;;13.25;;
50319;SDS011;36226;53.464;9.852;2024-01-11T04:10:54;43.40;;;14.70;;
50319;SDS011;36226;53.464;9.852;2024-01-11T04:13:19;38.53;;;13.70;;
50319;SDS011;36226;53.464;9.852;2024-01-11T04:15:44;39.97;;;13.70;;
50319;SDS011;36226;53.464;9.852;2024-01-11T04:18:10;42.72;;;14.45;;
50319;SDS011;36226;53.464;9.852;2024-01-11T04:20:35;43.78;;;14.57;;
50319;SDS011;36226;53.464;9.852;2024-01-11T04:23:00;38.90;;;13.93;;
50319;SDS011;36226;53.464;9.852;2024-01-11T04:25:26;45.20;;;14.18;;
50319;SDS011;36226;53.464;9.852;2024-01-11T04:27:51;48.35;;;14.60;;
50319;SDS011;36226;53.464;9.852;2024-01-11T04:30:16;41.75;;;13.77;;
50319;SDS011;36226;53.464;9.852;2024-01-11T04:32:42;47.10;;;15.88;;
50319;SDS011;36226;53.464;9.852;2024-01-11T04:35:07;47.92;;;17.05;;
50319;SDS011;36226;53.464;9.852;2024-01-11T04:37:33;51.00;;;15.73;;
50319;SDS011;36226;53.464;9.852;2024-01-11T04:40:00;50.38;;;16.05;;
50319;SDS011;36226;53.464;9.852;2024-01-11T04:42:26;50.22;;;16.33;;
50319;SDS011;36226;53.464;9.852;2024-01-11T04:44:52;53.70;;;17.45;;
50319;SDS011;36226;53.464;9.852;2024-01-11T04:47:18;50.30;;;16.40;;
50319;SDS011;36226;53.464;9.852;2024-01-11T04:49:43;49.17;;;15.55;;
50319;SDS011;36226;53.464;9.852;2024-01-11T04:52:08;51.13;;;16.67;;
50319;SDS011;36226;53.464;9.852;2024-01-11T04:54:34;47.63;;;15.80;;
50319;SDS011;36226;53.464;9.852;2024-01-11T04:56:59;59.47;;;16.65;;
50319;SDS011;36226;53.464;9.852;2024-01-11T04:59:25;48.65;;;15.45;;
50319;SDS011;36226;53.464;9.852;2024-01-11T05:01:50;47.58;;;14.85;;
50319;SDS011;36226;53.464;9.852;2024-01-11T05:04:15;48.15;;;15.65;;
50319;SDS011;36226;53.464;9.852;2024-01-11T05:06:40;46.38;;;15.77;;
50319;SDS011;36226;53.464;9.852;2024-01-11T05:09:06;47.63;;;16.35;;
50319;SDS011;36226;53.464;9.852;2024-01-11T05:11:32;53.97;;;16.48;;
50319;SDS011;36226;53.464;9.852;2024-01-11T05:13:57;52.58;;;16.45;;
50319;SDS011;36226;53.464;9.852;2024-01-11T05:16:23;52.67;;;16.15;;
50319;SDS011;36226;53.464;9.852;2024-01-11T05:18:50;45.30;;;15.35;;
50319;SDS011;36226;53.464;9.852;2024-01-11T05:21:16;48.08;;;15.45;;
50319;SDS011;36226;53.464;9.852;2024-01-11T05:23:41;50.60;;;17.13;;
50319;SDS011;36226;53.464;9.852;2024-01-11T05:26:07;47.85;;;15.73;;
50319;SDS011;36226;53.464;9.852;2024-01-11T05:28:33;42.92;;;14.57;;
50319;SDS011;36226;53.464;9.852;2024-01-11T05:30:58;49.60;;;16.02;;
50319;SDS011;36226;53.464;9.852;2024-01-11T05:33:24;51.22;;;16.40;;
50319;SDS011;36226;53.464;9.852;2024-01-11T05:35:49;46.97;;;15.57;;
50319;SDS011;36226;53.464;9.852;2024-01-11T05:38:14;43.17;;;14.68;;
50319;SDS011;36226;53.464;9.852;2024-01-11T05:40:40;47.05;;;14.95;;
50319;SDS011;36226;53.464;9.852;2024-01-11T05:43:05;44.50;;;15.48;;
50319;SDS011;36226;53.464;9.852;2024-01-11T05:45:31;44.03;;;16.00;;
50319;SDS011;36226;53.464;9.852;2024-01-11T05:47:56;43.55;;;14.05;;
50319;SDS011;36226;53.464;9.852;2024-01-11T05:50:21;43.42;;;14.85;;
50319;SDS011;36226;53.464;9.852;2024-01-11T05:52:47;45.85;;;14.45;;
50319;SDS011;36226;53.464;9.852;2024-01-11T05:55:12;44.17;;;15.13;;
50319;SDS011;36226;53.464;9.852;2024-01-11T05:57:38;45.30;;;14.93;;
50319;SDS011;36226;53.464;9.852;2024-01-11T06:00:04;39.75;;;14.40;;
50319;SDS011;36226;53.464;9.852;2024-01-11T06:02:30;38.38;;;13.48;;
50319;SDS011;36226;53.464;9.852;2024-01-11T06:04:56;41.58;;;13.18;;
50319;SDS011;36226;53.464;9.852;2024-01-11T06:07:25;41.40;;;13.90;;
50319;SDS011;36226;53.464;9.852;2024-01-11T06:09:50;45.47;;;14.85;;
50319;SDS011;36226;53.464;9.852;2024-01-11T06:12:15;38.40;;;13.02;;
50319;SDS011;36226;53.464;9.852;2024-01-11T06:14:41;35.78;;;13.15;;
50319;SDS011;36226;53.464;9.852;2024-01-11T06:17:06;34.80;;;11.85;;
50319;SDS011;36226;53.464;9.852;2024-01-11T06:19:32;33.33;;;13.07;;
50319;SDS011;36226;53.464;9.852;2024-01-11T06:21:57;36.00;;;12.05;;
50319;SDS011;36226;53.464;9.852;2024-01-11T06:24:23;32.92;;;11.65;;
50319;SDS011;36226;53.464;9.852;2024-01-11T06:26:48;32.80;;;10.93;;
50319;SDS011;36226;53.464;9.852;2024-01-11T06:29:13;33.90;;;10.25;;
50319;SDS011;36226;53.464;9.852;2024-01-11T06:31:41;32.33;;;11.00;;
50319;SDS011;36226;53.464;9.852;2024-01-11T06:34:10;36.25;;;10.52;;
50319;SDS011;36226;53.464;9.852;2024-01-11T06:36:35;30.13;;;10.55;;
50319;SDS011;36226;53.464;9.852;2024-01-11T06:39:00;31.60;;;10.68;;
50319;SDS011;36226;53.464;9.852;2024-01-11T06:41:26;29.10;;;10.90;;
50319;SDS011;36226;53.464;9.852;2024-01-11T06:43:51;29.67;;;9.60;;
50319;SDS011;36226;53.464;9.852;2024-01-11T06:46:20;27.98;;;10.23;;
50319;SDS011;36226;53.464;9.852;2024-01-11T06:48:46;34.60;;;10.70;;
50319;SDS011;36226;53.464;9.852;2024-01-11T06:51:15;32.90;;;10.55;;
50319;SDS011;36226;53.464;9.852;2024-01-11T06:53:41;29.35;;;10.40;;
50319;SDS011;36226;53.464;9.852;2024-01-11T06:56:14;30.83;;;9.90;;
50319;SDS011;36226;53.464;9.852;2024-01-11T06:58:40;30.63;;;10.70;;
50319;SDS011;36226;53.464;9.852;2024-01-11T07:01:05;32.75;;;10.38;;
50319;SDS011;36226;53.464;9.852;2024-01-11T07:03:30;27.50;;;9.57;;
50319;SDS011;36226;53.464;9.852;2024-01-11T07:05:56;32.03;;;10.30;;
50319;SDS011;36226;53.464;9.852;2024-01-11T07:08:22;35.30;;;9.13;;
50319;SDS011;36226;53.464;9.852;2024-01-11T07:10:47;35.22;;;9.93;;
50319;SDS011;36226;53.464;9.852;2024-01-11T07:13:12;35.78;;;10.82;;
50319;SDS011;36226;53.464;9.852;2024-01-11T07:15:41;32.72;;;10.02;;
50319;SDS011;36226;53.464;9.852;2024-01-11T07:18:06;31.35;;;10.30;;
50319;SDS011;36226;53.464;9.852;2024-01-11T07:20:32;30.88;;;9.00;;
50319;SDS011;36226;53.464;9.852;2024-01-11T07:22:57;36.25;;;10.32;;
50319;SDS011;36226;53.464;9.852;2024-01-11T07:25:22;29.33;;;10.98;;
50319;SDS011;36226;53.464;9.852;2024-01-11T07:27:48;31.52;;;10.13;;
50319;SDS011;36226;53.464;9.852;2024-01-11T07:30:13;32.17;;;10.98;;
50319;SDS011;36226;53.464;9.852;2024-01-11T07:32:39;29.20;;;10.30;;
50319;SDS011;36226;53.464;9.852;2024-01-11T07:35:04;35.10;;;10.63;;
50319;SDS011;36226;53.464;9.852;2024-01-11T07:37:31;36.00;;;10.75;;
50319;SDS011;36226;53.464;9.852;2024-01-11T07:39:57;49.28;;;14.55;;
50319;SDS011;36226;53.464;9.852;2024-01-11T07:42:22;33.30;;;9.40;;
50319;SDS011;36226;53.464;9.852;2024-01-11T07:44:47;28.95;;;8.77;;
50319;SDS011;36226;53.464;9.852;2024-01-11T07:47:13;33.60;;;9.02;;
50319;SDS011;36226;53.464;9.852;2024-01-11T07:49:38;31.65;;;9.63;;
50319;SDS011;36226;53.464;9.852;2024-01-11T07:52:04;27.48;;;8.80;;
50319;SDS011;36226;53.464;9.852;2024-01-11T07:54:30;34.22;;;10.18;;
50319;SDS011;36226;53.464;9.852;2024-01-11T07:56:56;29.33;;;9.15;;
50319;SDS011;36226;53.464;9.852;2024-01-11T07:59:21;32.92;;;9.38;;
50319;SDS011;36226;53.464;9.852;2024-01-11T08:01:47;26.38;;;8.68;;
50319;SDS011;36226;53.464;9.852;2024-01-11T08:04:13;28.80;;;8.85;;
50319;SDS011;36226;53.464;9.852;2024-01-11T08:06:39;25.98;;;9.23;;
50319;SDS011;36226;53.464;9.852;2024-01-11T08:09:04;32.83;;;9.15;;
50319;SDS011;36226;53.464;9.852;2024-01-11T08:11:30;22.35;;;7.55;;
50319;SDS011;36226;53.464;9.852;2024-01-11T08:13:56;23.80;;;6.82;;
50319;SDS011;36226;53.464;9.852;2024-01-11T08:16:21;21.13;;;6.82;;
50319;SDS011;36226;53.464;9.852;2024-01-11T08:18:47;25.50;;;7.20;;
50319;SDS011;36226;53.464;9.852;2024-01-11T08:21:14;21.63;;;6.22;;
50319;SDS011;36226;53.464;9.852;2024-01-11T08:23:42;23.77;;;4.90;;
50319;SDS011;36226;53.464;9.852;2024-01-11T08:26:13;22.98;;;5.07;;
50319;SDS011;36226;53.464;9.852;2024-01-11T08:28:39;22.55;;;4.85;;
50319;SDS011;36226;53.464;9.852;2024-01-11T08:31:05;16.58;;;4.40;;
50319;SDS011;36226;53.464;9.852;2024-01-11T08:33:31;15.57;;;3.78;;
50319;SDS011;36226;53.464;9.852;2024-01-11T08:35:56;15.18;;;3.97;;
50319;SDS011;36226;53.464;9.852;2024-01-11T08:38:22;16.55;;;6.35;;
50319;SDS011;36226;53.464;9.852;2024-01-11T08:40:49;22.70;;;6.28;;
50319;SDS011;36226;53.464;9.852;2024-01-11T08:43:14;16.65;;;4.40;;
50319;SDS011;36226;53.464;9.852;2024-01-11T08:45:40;20.40;;;4.57;;
50319;SDS011;36226;53.464;9.852;2024-01-11T08:48:05;19.15;;;5.75;;
50319;SDS011;36226;53.464;9.852;2024-01-11T08:50:31;19.08;;;5.03;;
50319;SDS011;36226;53.464;9.852;2024-01-11T08:52:57;20.25;;;5.18;;
50319;SDS011;36226;53.464;9.852;2024-01-11T08:55:23;19.33;;;5.35;;
50319;SDS011;36226;53.464;9.852;2024-01-11T08:57:48;25.30;;;5.78;;
50319;SDS011;36226;53.464;9.852;2024-01-11T09:00:13;20.63;;;5.93;;
50319;SDS011;36226;53.464;9.852;2024-01-11T09:02:42;22.73;;;5.97;;
50319;SDS011;36226;53.464;9.852;2024-01-11T09:05:08;24.23;;;6.78;;
50319;SDS011;36226;53.464;9.852;2024-01-11T09:07:34;19.88;;;6.10;;
50319;SDS011;36226;53.464;9.852;2024-01-11T09:09:59;27.33;;;7.47;;
50319;SDS011;36226;53.464;9.852;2024-01-11T09:12:24;22.98;;;6.20;;
50319;SDS011;36226;53.464;9.852;2024-01-11T09:14:50;30.95;;;7.68;;
50319;SDS011;36226;53.464;9.852;2024-01-11T09:17:15;33.63;;;10.63;;
50319;SDS011;36226;53.464;9.852;2024-01-11T09:19:41;36.42;;;10.48;;
50319;SDS011;36226;53.464;9.852;2024-01-11T09:22:06;39.65;;;11.63;;
50319;SDS011;36226;53.464;9.852;2024-01-11T09:24:34;42.35;;;11.15;;
50319;SDS011;36226;53.464;9.852;2024-01-11T09:27:00;42.53;;;12.32;;
50319;SDS011;36226;53.464;9.852;2024-01-11T09:29:25;40.35;;;12.45;;
50319;SDS011;36226;53.464;9.852;2024-01-11T09:31:52;42.35;;;13.05;;
50319;SDS011;36226;53.464;9.852;2024-01-11T09:34:18;46.13;;;14.27;;
50319;SDS011;36226;53.464;9.852;2024-01-11T09:36:43;46.08;;;12.43;;
50319;SDS011;36226;53.464;9.852;2024-01-11T09:39:10;39.33;;;12.35;;
50319;SDS011;36226;53.464;9.852;2024-01-11T09:41:38;40.28;;;12.38;;
50319;SDS011;36226;53.464;9.852;2024-01-11T09:44:07;40.85;;;12.75;;
50319;SDS011;36226;53.464;9.852;2024-01-11T09:46:32;46.72;;;14.35;;
50319;SDS011;36226;53.464;9.852;2024-01-11T09:48:58;41.08;;;12.55;;
50319;SDS011;36226;53.464;9.852;2024-01-11T09:51:23;50.95;;;14.50;;
50319;SDS011;36226;53.464;9.852;2024-01-11T09:53:50;45.33;;;14.88;;
50319;SDS011;36226;53.464;9.852;2024-01-11T09:56:16;48.08;;;13.55;;
50319;SDS011;36226;53.464;9.852;2024-01-11T09:58:46;45.67;;;13.38;;
50319;SDS011;36226;53.464;9.852;2024-01-11T10:01:15;46.42;;;15.02;;
50319;SDS011;36226;53.464;9.852;2024-01-11T10:03:40;40.72;;;12.70;;
50319;SDS011;36226;53.464;9.852;2024-01-11T10:06:09;44.45;;;14.57;;
50319;SDS011;36226;53.464;9.852;2024-01-11T10:08:35;41.17;;;12.60;;
50319;SDS011;36226;53.464;9.852;2024-01-11T10:11:01;40.90;;;13.38;;
50319;SDS011;36226;53.464;9.852;2024-01-11T10:13:28;41.38;;;12.63;;
50319;SDS011;36226;53.464;9.852;2024-01-11T10:16:15;42.55;;;12.75;;
50319;SDS011;36226;53.464;9.852;2024-01-11T10:18:40;39.30;;;11.30;;
50319;SDS011;36226;53.464;9.852;2024-01-11T10:21:09;47.22;;;13.38;;
50319;SDS011;36226;53.464;9.852;2024-01-11T10:23:38;45.38;;;13.20;;
50319;SDS011;36226;53.464;9.852;2024-01-11T10:26:04;40.33;;;13.00;;
50319;SDS011;36226;53.464;9.852;2024-01-11T10:28:29;46.00;;;12.70;;
50319;SDS011;36226;53.464;9.852;2024-01-11T10:30:55;40.00;;;12.50;;
50319;SDS011;36226;53.464;9.852;2024-01-11T10:33:20;40.67;;;12.65;;
50319;SDS011;36226;53.464;9.852;2024-01-11T10:35:46;39.22;;;12.27;;
50319;SDS011;36226;53.464;9.852;2024-01-11T10:38:14;41.70;;;12.68;;
50319;SDS011;36226;53.464;9.852;2024-01-11T10:40:40;38.10;;;12.98;;
50319;SDS011;36226;53.464;9.852;2024-01-11T10:43:12;40.67;;;12.10;;
50319;SDS011;36226;53.464;9.852;2024-01-11T10:45:49;44.83;;;13.77;;
50319;SDS011;36226;53.464;9.852;2024-01-11T10:48:18;41.30;;;12.55;;
50319;SDS011;36226;53.464;9.852;2024-01-11T10:50:46;40.50;;;13.20;;
50319;SDS011;36226;53.464;9.852;2024-01-11T10:55:43;36.30;;;11.70;;
50319;SDS011;36226;53.464;9.852;2024-01-11T10:58:09;46.17;;;13.27;;
50319;SDS011;36226;53.464;9.852;2024-01-11T11:00:37;41.72;;;12.05;;
50319;SDS011;36226;53.464;9.852;2024-01-11T11:03:04;42.10;;;12.50;;
50319;SDS011;36226;53.464;9.852;2024-01-11T11:05:31;41.70;;;12.32;;
50319;SDS011;36226;53.464;9.852;2024-01-11T11:08:03;48.63;;;14.27;;
50319;SDS011;36226;53.464;9.852;2024-01-11T11:10:29;41.75;;;13.30;;
50319;SDS011;36226;53.464;9.852;2024-01-11T11:12:55;42.67;;;12.30;;
50319;SDS011;36226;53.464;9.852;2024-01-11T11:15:24;51.13;;;14.45;;
50319;SDS011;36226;53.464;9.852;2024-01-11T11:17:52;48.22;;;14.65;;
50319;SDS011;36226;53.464;9.852;2024-01-11T11:20:18;55.03;;;15.68;;
50319;SDS011;36226;53.464;9.852;2024-01-11T11:23:22;51.50;;;14.13;;
50319;SDS011;36226;53.464;9.852;2024-01-11T11:25:48;48.42;;;14.32;;
50319;SDS011;36226;53.464;9.852;2024-01-11T11:28:15;42.67;;;13.32;;
50319;SDS011;36226;53.464;9.852;2024-01-11T11:30:48;52.38;;;15.05;;
50319;SDS011;36226;53.464;9.852;2024-01-11T11:33:20;49.42;;;14.65;;
50319;SDS011;36226;53.464;9.852;2024-01-11T11:35:51;56.60;;;14.90;;
50319;SDS011;36226;53.464;9.852;2024-01-11T11:38:28;51.25;;;13.98;;
50319;SDS011;36226;53.464;9.852;2024-01-11T11:40:58;47.47;;;13.98;;
50319;SDS011;36226;53.464;9.852;2024-01-11T11:43:26;46.00;;;14.30;;
50319;SDS011;36226;53.464;9.852;2024-01-11T11:45:52;47.45;;;13.55;;
50319;SDS011;36226;53.464;9.852;2024-01-11T11:48:47;47.70;;;13.68;;
50319;SDS011;36226;53.464;9.852;2024-01-11T11:51:10;48.92;;;13.40;;
50319;SDS011;36226;53.464;9.852;2024-01-11T11:53:36;49.83;;;13.45;;
50319;SDS011;36226;53.464;9.852;2024-01-11T11:56:02;49.13;;;14.93;;
50319;SDS011;36226;53.464;9.852;2024-01-11T11:58:29;50.75;;;14.10;;
50319;SDS011;36226;53.464;9.852;2024-01-11T12:00:54;48.67;;;13.95;;
50319;SDS011;36226;53.464;9.852;2024-01-11T12:03:23;51.20;;;14.48;;
50319;SDS011;36226;53.464;9.852;2024-01-11T12:05:51;44.33;;;13.38;;
50319;SDS011;36226;53.464;9.852;2024-01-11T12:08:16;48.70;;;15.32;;
50319;SDS011;36226;53.464;9.852;2024-01-11T12:10:41;53.83;;;14.27;;
50319;SDS011;36226;53.464;9.852;2024-01-11T12:13:07;48.78;;;14.88;;
50319;SDS011;36226;53.464;9.852;2024-01-11T12:15:33;44.22;;;14.32;;
50319;SDS011;36226;53.464;9.852;2024-01-11T12:17:59;60.33;;;15.68;;
50319;SDS011;36226;53.464;9.852;2024-01-11T12:20:24;48.58;;;14.68;;
50319;SDS011;36226;53.464;9.852;2024-01-11T12:22:49;55.35;;;15.75;;
50319;SDS011;36226;53.464;9.852;2024-01-11T12:25:15;60.28;;;18.52;;
50319;SDS011;36226;53.464;9.852;2024-01-11T12:27:40;54.05;;;16.17;;
50319;SDS011;36226;53.464;9.852;2024-01-11T12:30:06;59.60;;;16.67;;
50319;SDS011;36226;53.464;9.852;2024-01-11T12:32:34;54.03;;;16.17;;
50319;SDS011;36226;53.464;9.852;2024-01-11T12:34:59;59.40;;;15.13;;
50319;SDS011;36226;53.464;9.852;2024-01-11T12:37:25;49.72;;;14.57;;
50319;SDS011;36226;53.464;9.852;2024-01-11T12:39:56;53.35;;;15.57;;
50319;SDS011;36226;53.464;9.852;2024-01-11T12:42:23;56.15;;;14.63;;
50319;SDS011;36226;53.464;9.852;2024-01-11T12:44:48;52.88;;;14.05;;
50319;SDS011;36226;53.464;9.852;2024-01-11T12:47:15;47.22;;;13.50;;
50319;SDS011;36226;53.464;9.852;2024-01-11T12:49:44;54.35;;;14.32;;
50319;SDS011;36226;53.464;9.852;2024-01-11T12:52:19;53.85;;;15.00;;
50319;SDS011;36226;53.464;9.852;2024-01-11T12:54:51;57.13;;;15.00;;
50319;SDS011;36226;53.464;9.852;2024-01-11T12:57:18;59.15;;;18.58;;
50319;SDS011;36226;53.464;9.852;2024-01-11T12:59:47;57.67;;;16.83;;
50319;SDS011;36226;53.464;9.852;2024-01-11T13:02:13;58.35;;;16.30;;
50319;SDS011;36226;53.464;9.852;2024-01-11T13:04:39;60.20;;;15.82;;
50319;SDS011;36226;53.464;9.852;2024-01-11T13:07:05;55.25;;;16.00;;
50319;SDS011;36226;53.464;9.852;2024-01-11T13:09:34;57.88;;;15.38;;
50319;SDS011;36226;53.464;9.852;2024-01-11T13:12:00;58.00;;;16.73;;
50319;SDS011;36226;53.464;9.852;2024-01-11T13:14:25;52.72;;;15.18;;
50319;SDS011;36226;53.464;9.852;2024-01-11T13:16:53;52.90;;;16.75;;
50319;SDS011;36226;53.464;9.852;2024-01-11T13:19:18;56.13;;;16.02;;
50319;SDS011;36226;53.464;9.852;2024-01-11T13:21:43;52.13;;;14.63;;
50319;SDS011;36226;53.464;9.852;2024-01-11T13:24:09;44.78;;;13.63;;
50319;SDS011;36226;53.464;9.852;2024-01-11T13:26:35;47.08;;;15.07;;
50319;SDS011;36226;53.464;9.852;2024-01-11T13:29:02;44.33;;;13.82;;
50319;SDS011;36226;53.464;9.852;2024-01-11T13:31:27;53.50;;;15.95;;
50319;SDS011;36226;53.464;9.852;2024-01-11T13:33:53;49.60;;;14.32;;
50319;SDS011;36226;53.464;9.852;2024-01-11T13:36:20;46.13;;;14.07;;
50319;SDS011;36226;53.464;9.852;2024-01-11T13:38:45;52.40;;;14.57;;
50319;SDS011;36226;53.464;9.852;2024-01-11T13:41:11;52.85;;;14.48;;
50319;SDS011;36226;53.464;9.852;2024-01-11T13:43:36;47.97;;;14.65;;
50319;SDS011;36226;53.464;9.852;2024-01-11T13:46:01;45.00;;;13.65;;
50319;SDS011;36226;53.464;9.852;2024-01-11T13:48:30;46.20;;;12.80;;
50319;SDS011;36226;53.464;9.852;2024-01-11T13:50:57;49.00;;;14.15;;
50319;SDS011;36226;53.464;9.852;2024-01-11T13:53:23;48.40;;;13.65;;
50319;SDS011;36226;53.464;9.852;2024-01-11T13:55:48;53.58;;;14.82;;
50319;SDS011;36226;53.464;9.852;2024-01-11T13:58:13;46.95;;;14.00;;
50319;SDS011;36226;53.464;9.852;2024-01-11T14:00:40;47.30;;;13.60;;
50319;SDS011;36226;53.464;9.852;2024-01-11T14:03:06;49.60;;;13.25;;
50319;SDS011;36226;53.464;9.852;2024-01-11T14:05:31;47.40;;;14.65;;
50319;SDS011;36226;53.464;9.852;2024-01-11T14:07:57;47.72;;;14.30;;
50319;SDS011;36226;53.464;9.852;2024-01-11T14:10:26;48.55;;;14.48;;
50319;SDS011;36226;53.464;9.852;2024-01-11T14:12:52;46.70;;;14.60;;
50319;SDS011;36226;53.464;9.852;2024-01-11T14:15:17;41.25;;;13.80;;
50319;SDS011;36226;53.464;9.852;2024-01-11T14:17:42;45.72;;;14.13;;
50319;SDS011;36226;53.464;9.852;2024-01-11T14:20:08;52.15;;;14.40;;